CSZ9808 ZSAM-ZSFZ
Flight info
| Callsign | CSZ9808 |
|---|---|
| Flight time | 0h 39m |
| Altitude | 12000 |
| Route | DOVPU W643 ATSAB A470 ENVEN |
| Aircraft | B738/M-B738/L |
Departure
| Time | 2026-05-04 02:05 |
|---|---|
| Airport | Xiamen Gaoqi International Airport (ZSAM) |
Arrival
| Time | 2026-05-04 02:44 |
|---|---|
| Airport | Fuzhou Changle International Airport (ZSFZ) |
| Time | Latitude | Longitude | Altitude | Speed | Heading |
|---|---|---|---|---|---|
| 2026-05-04 01:53 | 24.53752 | 118.12528 | 58 ft | 0 kts | 143° |
| 2026-05-04 01:59 | 24.53767 | 118.12516 | 58 ft | 5 kts | 143° |
| 2026-05-04 01:59 | 24.53801 | 118.12484 | 58 ft | 5 kts | 102° |
| 2026-05-04 01:59 | 24.53800 | 118.12468 | 58 ft | 0 kts | 80° |
| 2026-05-04 01:59 | 24.53800 | 118.12463 | 58 ft | 1 kts | 91° |
| 2026-05-04 02:00 | 24.53796 | 118.12447 | 58 ft | 1 kts | 45° |
| 2026-05-04 02:00 | 24.53788 | 118.12447 | 58 ft | 1 kts | 298° |
| 2026-05-04 02:00 | 24.53795 | 118.12473 | 58 ft | 4 kts | 242° |
| 2026-05-04 02:00 | 24.53794 | 118.12470 | 58 ft | 4 kts | 242° |
| 2026-05-04 02:01 | 24.53766 | 118.12413 | 59 ft | 11 kts | 242° |
| 2026-05-04 02:01 | 24.53756 | 118.12313 | 59 ft | 15 kts | 266° |
| 2026-05-04 02:01 | 24.53774 | 118.12188 | 60 ft | 16 kts | 280° |
| 2026-05-04 02:01 | 24.53711 | 118.12071 | 62 ft | 20 kts | 231° |
| 2026-05-04 02:02 | 24.53611 | 118.11933 | 64 ft | 25 kts | 231° |
| 2026-05-04 02:02 | 24.53496 | 118.11770 | 65 ft | 30 kts | 231° |
| 2026-05-04 02:02 | 24.53432 | 118.11681 | 63 ft | 0 kts | 232° |
| 2026-05-04 02:03 | 24.53422 | 118.11666 | 63 ft | 8 kts | 233° |
| 2026-05-04 02:04 | 24.53408 | 118.11558 | 61 ft | 21 kts | 282° |
| 2026-05-04 02:04 | 24.53509 | 118.11507 | 59 ft | 16 kts | 36° |
| 2026-05-04 02:04 | 24.53569 | 118.11579 | 62 ft | 15 kts | 50° |
| 2026-05-04 02:04 | 24.53896 | 118.12036 | 64 ft | 132 kts | 51° |
| 2026-05-04 02:05 | 24.54583 | 118.12984 | 695 ft | 176 kts | 51° |
| 2026-05-04 02:05 | 24.55288 | 118.13980 | 2050 ft | 173 kts | 52° |
| 2026-05-04 02:05 | 24.56054 | 118.15064 | 2775 ft | 193 kts | 52° |
| 2026-05-04 02:05 | 24.56916 | 118.16277 | 3399 ft | 217 kts | 52° |
| 2026-05-04 02:06 | 24.57891 | 118.17650 | 4139 ft | 242 kts | 51° |
| 2026-05-04 02:06 | 24.58913 | 118.19089 | 5554 ft | 243 kts | 51° |
| 2026-05-04 02:06 | 24.59928 | 118.20519 | 6870 ft | 246 kts | 51° |
| 2026-05-04 02:06 | 24.60964 | 118.21975 | 8133 ft | 250 kts | 51° |
| 2026-05-04 02:07 | 24.62069 | 118.23451 | 9363 ft | 255 kts | 44° |
| 2026-05-04 02:07 | 24.63447 | 118.24636 | 10559 ft | 258 kts | 35° |
| 2026-05-04 02:07 | 24.64870 | 118.25762 | 11663 ft | 264 kts | 37° |
| 2026-05-04 02:07 | 24.66356 | 118.27010 | 12129 ft | 273 kts | 37° |
| 2026-05-04 02:08 | 24.67837 | 118.28252 | 12130 ft | 268 kts | 36° |
| 2026-05-04 02:08 | 24.69323 | 118.29481 | 12129 ft | 266 kts | 40° |
| 2026-05-04 02:08 | 24.70387 | 118.30554 | 12129 ft | 266 kts | 44° |
| 2026-05-04 02:08 | 24.71247 | 118.31522 | 12129 ft | 266 kts | 46° |
| 2026-05-04 02:09 | 24.72503 | 118.32993 | 12128 ft | 266 kts | 46° |
| 2026-05-04 02:09 | 24.73748 | 118.34479 | 12128 ft | 266 kts | 47° |
| 2026-05-04 02:09 | 24.75003 | 118.35994 | 12129 ft | 266 kts | 47° |
| 2026-05-04 02:09 | 24.76242 | 118.37497 | 12129 ft | 266 kts | 47° |
| 2026-05-04 02:10 | 24.77462 | 118.38981 | 12129 ft | 266 kts | 47° |
| 2026-05-04 02:10 | 24.78710 | 118.40501 | 12128 ft | 266 kts | 47° |
| 2026-05-04 02:10 | 24.79932 | 118.41990 | 12129 ft | 266 kts | 47° |
| 2026-05-04 02:10 | 24.81175 | 118.43504 | 12129 ft | 269 kts | 47° |
| 2026-05-04 02:11 | 24.82503 | 118.45122 | 12149 ft | 304 kts | 47° |
| 2026-05-04 02:11 | 24.84000 | 118.46944 | 12133 ft | 331 kts | 47° |
| 2026-05-04 02:11 | 24.85550 | 118.48833 | 12124 ft | 336 kts | 47° |
| 2026-05-04 02:11 | 24.87110 | 118.50731 | 12124 ft | 336 kts | 47° |
| 2026-05-04 02:12 | 24.88698 | 118.52608 | 12125 ft | 336 kts | 46° |
| 2026-05-04 02:12 | 24.90305 | 118.54493 | 12126 ft | 336 kts | 46° |
| 2026-05-04 02:12 | 24.91896 | 118.56364 | 12127 ft | 336 kts | 46° |
| 2026-05-04 02:12 | 24.93489 | 118.58240 | 12127 ft | 336 kts | 46° |
| 2026-05-04 02:13 | 24.95065 | 118.60097 | 12125 ft | 337 kts | 46° |
| 2026-05-04 02:13 | 24.96673 | 118.61992 | 12104 ft | 336 kts | 46° |
| 2026-05-04 02:13 | 24.98274 | 118.63879 | 12101 ft | 337 kts | 46° |
| 2026-05-04 02:13 | 24.99862 | 118.65753 | 12101 ft | 337 kts | 47° |
| 2026-05-04 02:14 | 25.01446 | 118.67622 | 12102 ft | 337 kts | 47° |
| 2026-05-04 02:14 | 25.03053 | 118.69521 | 12102 ft | 337 kts | 47° |
| 2026-05-04 02:14 | 25.04646 | 118.71403 | 12101 ft | 338 kts | 47° |
| 2026-05-04 02:14 | 25.06235 | 118.73280 | 12102 ft | 338 kts | 47° |
| 2026-05-04 02:15 | 25.07855 | 118.75195 | 12102 ft | 338 kts | 47° |
| 2026-05-04 02:15 | 25.09453 | 118.77085 | 12102 ft | 339 kts | 47° |
| 2026-05-04 02:15 | 25.11057 | 118.78982 | 12101 ft | 339 kts | 47° |
| 2026-05-04 02:15 | 25.12660 | 118.80881 | 12101 ft | 339 kts | 47° |
| 2026-05-04 02:16 | 25.14264 | 118.82780 | 12104 ft | 338 kts | 47° |
| 2026-05-04 02:16 | 25.15859 | 118.84668 | 12109 ft | 338 kts | 48° |
| 2026-05-04 02:16 | 25.17452 | 118.86556 | 12113 ft | 337 kts | 48° |
| 2026-05-04 02:16 | 25.19042 | 118.88440 | 12117 ft | 337 kts | 48° |
| 2026-05-04 02:17 | 25.20645 | 118.90340 | 12122 ft | 337 kts | 48° |
| 2026-05-04 02:17 | 25.22249 | 118.92243 | 12126 ft | 337 kts | 49° |
| 2026-05-04 02:17 | 25.23827 | 118.94108 | 12130 ft | 337 kts | 47° |
| 2026-05-04 02:17 | 25.25628 | 118.95596 | 12121 ft | 342 kts | 27° |
| 2026-05-04 02:18 | 25.27633 | 118.96146 | 12134 ft | 349 kts | 4° |
| 2026-05-04 02:18 | 25.29912 | 118.95706 | 12142 ft | 355 kts | 339° |
| 2026-05-04 02:18 | 25.32010 | 118.94033 | 12142 ft | 358 kts | 311° |
| 2026-05-04 02:18 | 25.33159 | 118.91650 | 12140 ft | 359 kts | 285° |
| 2026-05-04 02:19 | 25.33271 | 118.88905 | 12138 ft | 358 kts | 258° |
| 2026-05-04 02:19 | 25.32318 | 118.86428 | 12132 ft | 355 kts | 232° |
| 2026-05-04 02:19 | 25.30480 | 118.84649 | 12126 ft | 352 kts | 206° |
| 2026-05-04 02:19 | 25.28139 | 118.83952 | 12117 ft | 349 kts | 180° |
| 2026-05-04 02:20 | 25.25778 | 118.84243 | 12129 ft | 347 kts | 168° |
| 2026-05-04 02:20 | 25.23396 | 118.84695 | 12110 ft | 347 kts | 165° |
| 2026-05-04 02:20 | 25.21029 | 118.85143 | 12098 ft | 348 kts | 178° |
| 2026-05-04 02:20 | 25.18670 | 118.84631 | 12105 ft | 352 kts | 203° |
| 2026-05-04 02:21 | 25.16821 | 118.83141 | 12113 ft | 355 kts | 228° |
| 2026-05-04 02:21 | 25.15640 | 118.80790 | 12112 ft | 355 kts | 253° |
| 2026-05-04 02:21 | 25.15139 | 118.78118 | 12118 ft | 354 kts | 260° |
| 2026-05-04 02:21 | 25.14644 | 118.75507 | 12100 ft | 354 kts | 257° |
| 2026-05-04 02:22 | 25.13983 | 118.72884 | 12097 ft | 354 kts | 251° |
| 2026-05-04 02:22 | 25.13065 | 118.70358 | 12101 ft | 354 kts | 246° |
| 2026-05-04 02:22 | 25.12158 | 118.67879 | 12091 ft | 354 kts | 256° |
| 2026-05-04 02:22 | 25.12029 | 118.65256 | 12095 ft | 353 kts | 280° |
| 2026-05-04 02:23 | 25.12799 | 118.62692 | 12120 ft | 351 kts | 295° |
| 2026-05-04 02:23 | 25.13846 | 118.60309 | 12104 ft | 351 kts | 302° |
| 2026-05-04 02:23 | 25.15374 | 118.58284 | 12085 ft | 348 kts | 323° |
| 2026-05-04 02:23 | 25.17460 | 118.57122 | 12104 ft | 345 kts | 345° |
| 2026-05-04 02:24 | 25.19817 | 118.56576 | 12114 ft | 344 kts | 354° |
| 2026-05-04 02:24 | 25.22154 | 118.56599 | 12088 ft | 342 kts | 13° |
| 2026-05-04 02:24 | 25.24324 | 118.57574 | 12103 ft | 340 kts | 33° |
| 2026-05-04 02:24 | 25.26210 | 118.59139 | 12111 ft | 340 kts | 43° |
| 2026-05-04 02:25 | 25.27704 | 118.61174 | 12090 ft | 339 kts | 62° |
| 2026-05-04 02:25 | 25.28446 | 118.63606 | 12106 ft | 339 kts | 79° |
| 2026-05-04 02:25 | 25.28628 | 118.66191 | 12106 ft | 340 kts | 92° |
| 2026-05-04 02:25 | 25.28166 | 118.68765 | 12093 ft | 341 kts | 111° |
| 2026-05-04 02:26 | 25.27077 | 118.71079 | 12114 ft | 342 kts | 118° |
| 2026-05-04 02:26 | 25.25853 | 118.73302 | 12102 ft | 342 kts | 118° |
| 2026-05-04 02:26 | 25.25061 | 118.75749 | 12085 ft | 340 kts | 96° |
| 2026-05-04 02:26 | 25.25275 | 118.78349 | 12108 ft | 339 kts | 73° |
| 2026-05-04 02:27 | 25.26171 | 118.80756 | 12111 ft | 339 kts | 62° |
| 2026-05-04 02:27 | 25.27360 | 118.82887 | 12104 ft | 338 kts | 55° |
| 2026-05-04 02:27 | 25.28781 | 118.84940 | 12108 ft | 337 kts | 51° |
| 2026-05-04 02:27 | 25.30302 | 118.86927 | 12116 ft | 337 kts | 50° |
| 2026-05-04 02:28 | 25.31830 | 118.88867 | 12051 ft | 338 kts | 50° |
| 2026-05-04 02:28 | 25.33388 | 118.90807 | 11843 ft | 336 kts | 50° |
| 2026-05-04 02:28 | 25.34950 | 118.92708 | 11643 ft | 334 kts | 49° |
| 2026-05-04 02:28 | 25.36519 | 118.94547 | 11434 ft | 319 kts | 48° |
| 2026-05-04 02:29 | 25.38004 | 118.96281 | 11123 ft | 306 kts | 49° |
| 2026-05-04 02:29 | 25.39434 | 118.97952 | 10775 ft | 296 kts | 49° |
| 2026-05-04 02:29 | 25.40825 | 118.99579 | 10465 ft | 293 kts | 49° |
| 2026-05-04 02:29 | 25.42276 | 119.01280 | 10232 ft | 311 kts | 49° |
| 2026-05-04 02:30 | 25.43736 | 119.02982 | 9970 ft | 298 kts | 49° |
| 2026-05-04 02:30 | 25.45104 | 119.04577 | 9718 ft | 286 kts | 50° |
| 2026-05-04 02:30 | 25.46459 | 119.06160 | 9463 ft | 275 kts | 50° |
| 2026-05-04 02:30 | 25.47745 | 119.07664 | 9213 ft | 266 kts | 50° |
| 2026-05-04 02:31 | 25.48989 | 119.09118 | 8964 ft | 258 kts | 50° |
| 2026-05-04 02:31 | 25.50200 | 119.10535 | 8716 ft | 254 kts | 50° |
| 2026-05-04 02:31 | 25.51419 | 119.11964 | 8464 ft | 252 kts | 50° |
| 2026-05-04 02:31 | 25.52609 | 119.13357 | 8217 ft | 251 kts | 50° |
| 2026-05-04 02:32 | 25.53808 | 119.14762 | 7992 ft | 250 kts | 49° |
| 2026-05-04 02:32 | 25.54996 | 119.16152 | 7951 ft | 248 kts | 49° |
| 2026-05-04 02:32 | 25.56182 | 119.17542 | 7956 ft | 250 kts | 49° |
| 2026-05-04 02:32 | 25.57377 | 119.18943 | 7956 ft | 250 kts | 49° |
| 2026-05-04 02:33 | 25.58568 | 119.20338 | 7955 ft | 250 kts | 49° |
| 2026-05-04 02:33 | 25.59748 | 119.21722 | 7955 ft | 250 kts | 49° |
| 2026-05-04 02:33 | 25.60952 | 119.23134 | 7955 ft | 250 kts | 49° |
| 2026-05-04 02:33 | 25.62148 | 119.24538 | 7955 ft | 250 kts | 49° |
| 2026-05-04 02:34 | 25.63342 | 119.25942 | 7955 ft | 250 kts | 49° |
| 2026-05-04 02:34 | 25.64522 | 119.27329 | 7955 ft | 250 kts | 50° |
| 2026-05-04 02:34 | 25.65724 | 119.28744 | 7955 ft | 250 kts | 50° |
| 2026-05-04 02:34 | 25.66919 | 119.30149 | 7955 ft | 250 kts | 50° |
| 2026-05-04 02:35 | 25.68101 | 119.31541 | 7955 ft | 250 kts | 49° |
| 2026-05-04 02:35 | 25.69298 | 119.32951 | 7955 ft | 250 kts | 50° |
| 2026-05-04 02:35 | 25.70493 | 119.34358 | 7955 ft | 250 kts | 50° |
| 2026-05-04 02:35 | 25.71668 | 119.35754 | 7784 ft | 254 kts | 52° |
| 2026-05-04 02:36 | 25.72541 | 119.37444 | 7368 ft | 249 kts | 72° |
| 2026-05-04 02:36 | 25.73217 | 119.39198 | 6951 ft | 250 kts | 64° |
| 2026-05-04 02:36 | 25.73844 | 119.40991 | 6459 ft | 250 kts | 81° |
| 2026-05-04 02:36 | 25.73986 | 119.42908 | 5973 ft | 250 kts | 89° |
| 2026-05-04 02:37 | 25.74014 | 119.44774 | 5714 ft | 243 kts | 89° |
| 2026-05-04 02:37 | 25.74040 | 119.46659 | 5283 ft | 243 kts | 89° |
| 2026-05-04 02:37 | 25.74057 | 119.48526 | 4917 ft | 240 kts | 89° |
| 2026-05-04 02:37 | 25.74070 | 119.50325 | 4665 ft | 234 kts | 89° |
| 2026-05-04 02:38 | 25.74081 | 119.52104 | 4460 ft | 225 kts | 89° |
| 2026-05-04 02:38 | 25.74101 | 119.53799 | 4206 ft | 213 kts | 85° |
| 2026-05-04 02:38 | 25.74486 | 119.55278 | 4079 ft | 196 kts | 59° |
| 2026-05-04 02:38 | 25.75431 | 119.56291 | 3782 ft | 188 kts | 32° |
| 2026-05-04 02:39 | 25.76597 | 119.56907 | 3272 ft | 183 kts | 28° |
| 2026-05-04 02:39 | 25.77703 | 119.57488 | 2847 ft | 169 kts | 28° |
| 2026-05-04 02:39 | 25.78654 | 119.57997 | 2845 ft | 141 kts | 30° |
| 2026-05-04 02:39 | 25.79564 | 119.58509 | 2864 ft | 157 kts | 30° |
| 2026-05-04 02:40 | 25.80510 | 119.59038 | 2684 ft | 143 kts | 30° |
| 2026-05-04 02:40 | 25.81341 | 119.59503 | 2462 ft | 129 kts | 31° |
| 2026-05-04 02:40 | 25.82034 | 119.60081 | 2263 ft | 124 kts | 61° |
| 2026-05-04 02:40 | 25.82426 | 119.60927 | 2156 ft | 123 kts | 55° |
| 2026-05-04 02:41 | 25.83009 | 119.61591 | 1947 ft | 129 kts | 27° |
| 2026-05-04 02:41 | 25.83895 | 119.61629 | 1626 ft | 133 kts | 356° |
| 2026-05-04 02:41 | 25.84803 | 119.61586 | 1288 ft | 130 kts | 4° |
| 2026-05-04 02:41 | 25.85669 | 119.61706 | 1064 ft | 122 kts | 27° |
| 2026-05-04 02:42 | 25.86402 | 119.62163 | 1030 ft | 122 kts | 34° |
| 2026-05-04 02:42 | 25.87025 | 119.62805 | 1057 ft | 122 kts | 46° |
| 2026-05-04 02:42 | 25.87758 | 119.63296 | 971 ft | 125 kts | 28° |
| 2026-05-04 02:42 | 25.88551 | 119.63702 | 824 ft | 125 kts | 26° |
| 2026-05-04 02:43 | 25.89339 | 119.64077 | 666 ft | 124 kts | 26° |
| 2026-05-04 02:43 | 25.90130 | 119.64480 | 502 ft | 123 kts | 28° |
| 2026-05-04 02:43 | 25.90890 | 119.64893 | 340 ft | 123 kts | 29° |
| 2026-05-04 02:43 | 25.91658 | 119.65318 | 176 ft | 122 kts | 29° |
| 2026-05-04 02:44 | 25.92416 | 119.65741 | 53 ft | 118 kts | 29° |
| 2026-05-04 02:44 | 25.93181 | 119.66174 | 84 ft | 135 kts | 31° |
| 2026-05-04 02:44 | 25.93895 | 119.66576 | 53 ft | 75 kts | 27° |
| 2026-05-04 02:44 | 25.94144 | 119.66722 | 53 ft | 12 kts | 25° |
| 2026-05-04 02:45 | 25.94171 | 119.66736 | 52 ft | 9 kts | 26° |
| 2026-05-04 02:45 | 25.94280 | 119.66796 | 52 ft | 24 kts | 27° |
| 2026-05-04 02:45 | 25.94471 | 119.66902 | 53 ft | 35 kts | 25° |
| 2026-05-04 02:45 | 25.94722 | 119.67046 | 53 ft | 42 kts | 30° |
| 2026-05-04 02:46 | 25.94767 | 119.67231 | 52 ft | 24 kts | 116° |